sensor_id;sensor_type;location;lat;lon;timestamp;pressure;altitude;pressure_sealevel;temperature;humidity
13486;BME280;6815;59.336;17.998;2023-07-31T00:00:29;52184.97;;;-145.37;86.51
13486;BME280;6815;59.336;17.998;2023-07-31T00:02:55;52177.00;;;-145.37;85.92
13486;BME280;6815;59.336;17.998;2023-07-31T00:05:20;52230.88;;;-145.37;86.81
13486;BME280;6815;59.336;17.998;2023-07-31T00:07:46;52188.97;;;-145.37;86.56
13486;BME280;6815;59.336;17.998;2023-07-31T00:10:12;52171.00;;;-145.37;86.02
13486;BME280;6815;59.336;17.998;2023-07-31T00:12:38;52206.94;;;-145.37;85.95
13486;BME280;6815;59.336;17.998;2023-07-31T00:15:04;52157.03;;;-145.37;86.17
13486;BME280;6815;59.336;17.998;2023-07-31T00:17:30;52182.97;;;-145.37;85.64
13486;BME280;6815;59.336;17.998;2023-07-31T00:19:55;52198.94;;;-145.37;85.20
13486;BME280;6815;59.336;17.998;2023-07-31T00:22:21;52182.97;;;-145.37;84.46
13486;BME280;6815;59.336;17.998;2023-07-31T00:24:46;52180.97;;;-145.37;84.42
13486;BME280;6815;59.336;17.998;2023-07-31T00:27:12;52200.94;;;-145.37;84.94
13486;BME280;6815;59.336;17.998;2023-07-31T00:29:37;52220.91;;;-145.37;85.40
13486;BME280;6815;59.336;17.998;2023-07-31T00:32:03;52198.94;;;-145.37;85.16
13486;BME280;6815;59.336;17.998;2023-07-31T00:34:28;52214.91;;;-145.37;84.56
13486;BME280;6815;59.336;17.998;2023-07-31T00:36:54;52200.94;;;-145.37;85.05
13486;BME280;6815;59.336;17.998;2023-07-31T00:39:19;52230.88;;;-145.37;84.56
13486;BME280;6815;59.336;17.998;2023-07-31T00:41:44;52177.00;;;-145.37;84.72
13486;BME280;6815;59.336;17.998;2023-07-31T00:44:10;52192.97;;;-145.37;85.08
13486;BME280;6815;59.336;17.998;2023-07-31T00:46:35;52182.97;;;-145.37;84.51
13486;BME280;6815;59.336;17.998;2023-07-31T00:49:01;52165.00;;;-145.37;85.17
13486;BME280;6815;59.336;17.998;2023-07-31T00:51:26;52171.00;;;-145.37;84.84
13486;BME280;6815;59.336;17.998;2023-07-31T00:53:52;52198.94;;;-145.37;84.79
13486;BME280;6815;59.336;17.998;2023-07-31T00:56:19;52208.94;;;-145.37;85.19
13486;BME280;6815;59.336;17.998;2023-07-31T00:58:45;52171.00;;;-145.37;84.67
13486;BME280;6815;59.336;17.998;2023-07-31T01:01:10;52161.03;;;-145.37;84.62
13486;BME280;6815;59.336;17.998;2023-07-31T01:03:36;52228.88;;;-145.37;85.13
13486;BME280;6815;59.336;17.998;2023-07-31T01:09:26;52192.97;;;-145.37;84.90
13486;BME280;6815;59.336;17.998;2023-07-31T01:11:48;52188.97;;;-145.37;84.90
13486;BME280;6815;59.336;17.998;2023-07-31T01:14:17;52175.00;;;-145.37;84.98
13486;BME280;6815;59.336;17.998;2023-07-31T01:16:42;52190.97;;;-145.37;84.87
13486;BME280;6815;59.336;17.998;2023-07-31T01:19:08;52186.97;;;-145.37;84.96
13486;BME280;6815;59.336;17.998;2023-07-31T01:24:35;52186.97;;;-145.37;85.42
13486;BME280;6815;59.336;17.998;2023-07-31T01:27:09;52192.97;;;-145.37;85.75
13486;BME280;6815;59.336;17.998;2023-07-31T01:30:10;52240.88;;;-145.37;85.49
13486;BME280;6815;59.336;17.998;2023-07-31T01:32:28;52180.97;;;-145.37;85.79
13486;BME280;6815;59.336;17.998;2023-07-31T01:34:54;52206.94;;;-145.37;85.58
13486;BME280;6815;59.336;17.998;2023-07-31T01:37:20;52159.03;;;-145.37;85.45
13486;BME280;6815;59.336;17.998;2023-07-31T01:39:45;52178.97;;;-145.37;85.96
13486;BME280;6815;59.336;17.998;2023-07-31T01:42:11;52186.97;;;-145.37;85.59
13486;BME280;6815;59.336;17.998;2023-07-31T01:44:36;52218.91;;;-145.37;85.49
13486;BME280;6815;59.336;17.998;2023-07-31T01:47:01;52202.94;;;-145.37;85.49
13486;BME280;6815;59.336;17.998;2023-07-31T01:49:27;52175.00;;;-145.37;85.33
13486;BME280;6815;59.336;17.998;2023-07-31T01:51:52;52224.91;;;-145.37;85.46
13486;BME280;6815;59.336;17.998;2023-07-31T01:54:18;52192.97;;;-145.37;85.21
13486;BME280;6815;59.336;17.998;2023-07-31T01:56:43;52190.97;;;-145.37;84.93
13486;BME280;6815;59.336;17.998;2023-07-31T01:59:08;52192.97;;;-145.37;84.91
13486;BME280;6815;59.336;17.998;2023-07-31T02:01:34;52180.97;;;-145.37;85.74
13486;BME280;6815;59.336;17.998;2023-07-31T02:03:59;52196.94;;;-145.37;85.43
13486;BME280;6815;59.336;17.998;2023-07-31T02:06:25;52260.84;;;-145.37;85.59
13486;BME280;6815;59.336;17.998;2023-07-31T02:08:50;52210.91;;;-145.37;85.83
13486;BME280;6815;59.336;17.998;2023-07-31T02:11:15;52206.94;;;-145.37;85.73
13486;BME280;6815;59.336;17.998;2023-07-31T02:13:41;52184.97;;;-145.37;86.04
13486;BME280;6815;59.336;17.998;2023-07-31T02:16:06;52204.94;;;-145.37;85.50
13486;BME280;6815;59.336;17.998;2023-07-31T02:18:32;52196.94;;;-145.37;85.73
13486;BME280;6815;59.336;17.998;2023-07-31T02:20:57;52175.00;;;-145.37;86.29
13486;BME280;6815;59.336;17.998;2023-07-31T02:23:22;52204.94;;;-145.37;86.42
13486;BME280;6815;59.336;17.998;2023-07-31T02:25:48;52220.91;;;-145.37;85.67
13486;BME280;6815;59.336;17.998;2023-07-31T02:28:13;52220.91;;;-145.37;86.24
13486;BME280;6815;59.336;17.998;2023-07-31T02:30:39;52206.94;;;-145.37;86.47
13486;BME280;6815;59.336;17.998;2023-07-31T02:33:05;52222.91;;;-145.37;86.39
13486;BME280;6815;59.336;17.998;2023-07-31T02:35:30;52198.94;;;-145.37;86.67
13486;BME280;6815;59.336;17.998;2023-07-31T02:37:56;52216.91;;;-145.37;86.63
13486;BME280;6815;59.336;17.998;2023-07-31T02:40:21;52192.97;;;-145.37;86.41
13486;BME280;6815;59.336;17.998;2023-07-31T02:42:47;52224.91;;;-145.37;86.58
13486;BME280;6815;59.336;17.998;2023-07-31T02:45:13;52198.94;;;-145.37;86.36
13486;BME280;6815;59.336;17.998;2023-07-31T02:47:38;52216.91;;;-145.37;86.36
13486;BME280;6815;59.336;17.998;2023-07-31T02:50:04;52212.91;;;-145.37;86.92
13486;BME280;6815;59.336;17.998;2023-07-31T02:52:30;52208.94;;;-145.37;88.18
13486;BME280;6815;59.336;17.998;2023-07-31T02:54:55;52210.91;;;-145.37;87.62
13486;BME280;6815;59.336;17.998;2023-07-31T02:57:20;52200.94;;;-145.37;88.25
13486;BME280;6815;59.336;17.998;2023-07-31T02:59:46;52173.00;;;-145.37;88.29
13486;BME280;6815;59.336;17.998;2023-07-31T03:02:11;52173.00;;;-145.37;88.97
13486;BME280;6815;59.336;17.998;2023-07-31T03:04:38;52220.91;;;-145.37;89.52
13486;BME280;6815;59.336;17.998;2023-07-31T03:07:04;52163.00;;;-145.37;91.74
13486;BME280;6815;59.336;17.998;2023-07-31T03:09:29;52204.94;;;-145.37;90.62
13486;BME280;6815;59.336;17.998;2023-07-31T03:11:55;52210.91;;;-145.37;90.12
13486;BME280;6815;59.336;17.998;2023-07-31T03:14:20;52178.97;;;-145.37;90.25
13486;BME280;6815;59.336;17.998;2023-07-31T03:16:45;52226.91;;;-145.37;90.13
13486;BME280;6815;59.336;17.998;2023-07-31T03:19:11;52194.94;;;-145.37;90.05
13486;BME280;6815;59.336;17.998;2023-07-31T03:21:36;52184.97;;;-145.37;89.60
13486;BME280;6815;59.336;17.998;2023-07-31T03:24:02;52165.00;;;-145.37;89.78
13486;BME280;6815;59.336;17.998;2023-07-31T03:26:27;52230.88;;;-145.37;89.88
13486;BME280;6815;59.336;17.998;2023-07-31T03:28:52;52196.94;;;-145.37;90.15
13486;BME280;6815;59.336;17.998;2023-07-31T03:31:18;52210.91;;;-145.37;89.80
13486;BME280;6815;59.336;17.998;2023-07-31T03:33:43;52204.94;;;-145.37;89.83
13486;BME280;6815;59.336;17.998;2023-07-31T03:36:09;52204.94;;;-145.37;91.07
13486;BME280;6815;59.336;17.998;2023-07-31T03:38:34;52188.97;;;-145.37;90.52
13486;BME280;6815;59.336;17.998;2023-07-31T03:41:00;52252.84;;;-145.37;90.16
13486;BME280;6815;59.336;17.998;2023-07-31T03:43:25;52256.84;;;-145.37;90.65
13486;BME280;6815;59.336;17.998;2023-07-31T03:45:51;52228.88;;;-145.37;91.10
13486;BME280;6815;59.336;17.998;2023-07-31T03:48:16;52222.91;;;-145.37;91.53
13486;BME280;6815;59.336;17.998;2023-07-31T03:50:42;52177.00;;;-145.37;91.67
13486;BME280;6815;59.336;17.998;2023-07-31T03:53:07;52182.97;;;-145.37;91.77
13486;BME280;6815;59.336;17.998;2023-07-31T03:55:32;52264.81;;;-145.37;92.45
13486;BME280;6815;59.336;17.998;2023-07-31T03:57:58;52208.94;;;-145.37;92.33
13486;BME280;6815;59.336;17.998;2023-07-31T04:00:26;52284.78;;;-145.37;92.08
13486;BME280;6815;59.336;17.998;2023-07-31T04:02:52;52204.94;;;-145.37;92.83
13486;BME280;6815;59.336;17.998;2023-07-31T04:05:17;52240.88;;;-145.37;93.40
13486;BME280;6815;59.336;17.998;2023-07-31T04:07:43;52234.88;;;-145.37;92.99
13486;BME280;6815;59.336;17.998;2023-07-31T04:10:08;52222.91;;;-145.37;92.14
13486;BME280;6815;59.336;17.998;2023-07-31T04:12:34;52200.94;;;-145.37;91.16
13486;BME280;6815;59.336;17.998;2023-07-31T04:14:59;52155.03;;;-145.37;90.78
13486;BME280;6815;59.336;17.998;2023-07-31T04:17:25;52180.97;;;-145.37;91.33
13486;BME280;6815;59.336;17.998;2023-07-31T04:19:50;52218.91;;;-145.37;91.06
13486;BME280;6815;59.336;17.998;2023-07-31T04:22:15;52230.88;;;-145.37;90.80
13486;BME280;6815;59.336;17.998;2023-07-31T04:24:41;52224.91;;;-145.37;91.15
13486;BME280;6815;59.336;17.998;2023-07-31T04:27:06;52186.97;;;-145.37;91.93
13486;BME280;6815;59.336;17.998;2023-07-31T04:29:32;52246.84;;;-145.37;92.14
13486;BME280;6815;59.336;17.998;2023-07-31T04:31:57;52216.91;;;-145.37;92.15
13486;BME280;6815;59.336;17.998;2023-07-31T04:34:23;52302.75;;;-145.37;92.36
13486;BME280;6815;59.336;17.998;2023-07-31T04:36:48;52224.91;;;-145.37;92.55
13486;BME280;6815;59.336;17.998;2023-07-31T04:39:13;52224.91;;;-145.37;91.91
13486;BME280;6815;59.336;17.998;2023-07-31T04:41:39;52240.88;;;-145.37;90.36
13486;BME280;6815;59.336;17.998;2023-07-31T04:44:04;52198.94;;;-145.37;89.36
13486;BME280;6815;59.336;17.998;2023-07-31T04:46:30;52173.00;;;-145.37;89.58
13486;BME280;6815;59.336;17.998;2023-07-31T04:48:56;52180.97;;;-145.37;89.60
13486;BME280;6815;59.336;17.998;2023-07-31T04:51:22;52192.97;;;-145.37;90.04
13486;BME280;6815;59.336;17.998;2023-07-31T04:53:48;52190.97;;;-145.37;88.93
13486;BME280;6815;59.336;17.998;2023-07-31T04:56:13;52163.00;;;-145.37;88.30
13486;BME280;6815;59.336;17.998;2023-07-31T04:58:40;52216.91;;;-145.37;90.44
13486;BME280;6815;59.336;17.998;2023-07-31T05:01:06;52198.94;;;-145.37;90.95
13486;BME280;6815;59.336;17.998;2023-07-31T05:03:31;52212.91;;;-145.37;92.14
13486;BME280;6815;59.336;17.998;2023-07-31T05:05:56;52230.88;;;-145.37;92.03
13486;BME280;6815;59.336;17.998;2023-07-31T05:08:22;52198.94;;;-145.37;91.44
13486;BME280;6815;59.336;17.998;2023-07-31T05:10:47;52220.91;;;-145.37;91.30
13486;BME280;6815;59.336;17.998;2023-07-31T05:13:13;52230.88;;;-145.37;91.49
13486;BME280;6815;59.336;17.998;2023-07-31T05:15:41;52218.91;;;-145.37;90.67
13486;BME280;6815;59.336;17.998;2023-07-31T05:18:06;52210.91;;;-145.37;91.13
13486;BME280;6815;59.336;17.998;2023-07-31T05:20:32;52175.00;;;-145.37;90.85
13486;BME280;6815;59.336;17.998;2023-07-31T05:22:57;52198.94;;;-145.37;91.92
13486;BME280;6815;59.336;17.998;2023-07-31T05:25:22;52180.97;;;-145.37;92.33
13486;BME280;6815;59.336;17.998;2023-07-31T05:27:48;52192.97;;;-145.37;91.12
13486;BME280;6815;59.336;17.998;2023-07-31T05:30:13;52310.75;;;-145.37;92.07
13486;BME280;6815;59.336;17.998;2023-07-31T05:32:39;52214.91;;;-145.37;92.44
13486;BME280;6815;59.336;17.998;2023-07-31T05:35:04;52250.84;;;-145.37;92.77
13486;BME280;6815;59.336;17.998;2023-07-31T05:37:30;52286.78;;;-145.37;92.74
13486;BME280;6815;59.336;17.998;2023-07-31T05:39:55;52210.91;;;-145.37;91.92
13486;BME280;6815;59.336;17.998;2023-07-31T05:42:21;52188.97;;;-145.37;90.62
13486;BME280;6815;59.336;17.998;2023-07-31T05:44:46;52192.97;;;-145.37;90.81
13486;BME280;6815;59.336;17.998;2023-07-31T05:47:12;52228.88;;;-145.37;91.36
13486;BME280;6815;59.336;17.998;2023-07-31T05:49:37;52264.81;;;-145.37;89.88
13486;BME280;6815;59.336;17.998;2023-07-31T05:52:03;52198.94;;;-145.37;89.60
13486;BME280;6815;59.336;17.998;2023-07-31T05:54:29;52264.81;;;-145.37;89.90
13486;BME280;6815;59.336;17.998;2023-07-31T05:56:54;52202.94;;;-145.37;89.15
13486;BME280;6815;59.336;17.998;2023-07-31T05:59:20;52196.94;;;-145.37;87.96
13486;BME280;6815;59.336;17.998;2023-07-31T06:01:45;52208.94;;;-145.37;87.58
13486;BME280;6815;59.336;17.998;2023-07-31T06:04:10;52210.91;;;-145.37;88.36
13486;BME280;6815;59.336;17.998;2023-07-31T06:06:36;52302.75;;;-145.37;90.07
13486;BME280;6815;59.336;17.998;2023-07-31T06:09:01;52202.94;;;-145.37;91.39
13486;BME280;6815;59.336;17.998;2023-07-31T06:11:28;52159.03;;;-145.37;89.85
13486;BME280;6815;59.336;17.998;2023-07-31T06:13:54;52143.06;;;-145.37;90.41
13486;BME280;6815;59.336;17.998;2023-07-31T06:16:19;52186.97;;;-145.37;91.61
13486;BME280;6815;59.336;17.998;2023-07-31T06:18:46;52214.91;;;-145.37;91.10
13486;BME280;6815;59.336;17.998;2023-07-31T06:21:12;52234.88;;;-145.37;91.07
13486;BME280;6815;59.336;17.998;2023-07-31T06:23:37;52224.91;;;-145.37;91.46
13486;BME280;6815;59.336;17.998;2023-07-31T06:26:03;52214.91;;;-145.37;91.52
13486;BME280;6815;59.336;17.998;2023-07-31T06:28:29;52196.94;;;-145.37;92.25
13486;BME280;6815;59.336;17.998;2023-07-31T06:30:54;52202.94;;;-145.37;91.51
13486;BME280;6815;59.336;17.998;2023-07-31T06:33:20;52232.88;;;-145.37;93.48
13486;BME280;6815;59.336;17.998;2023-07-31T06:35:45;52222.91;;;-145.37;92.03
13486;BME280;6815;59.336;17.998;2023-07-31T06:38:11;52204.94;;;-145.37;92.45
13486;BME280;6815;59.336;17.998;2023-07-31T06:40:36;52214.91;;;-145.37;91.69
13486;BME280;6815;59.336;17.998;2023-07-31T06:43:02;52171.00;;;-145.37;92.70
13486;BME280;6815;59.336;17.998;2023-07-31T06:45:34;52242.88;;;-145.37;92.15
13486;BME280;6815;59.336;17.998;2023-07-31T06:48:00;52186.97;;;-145.37;93.26
13486;BME280;6815;59.336;17.998;2023-07-31T06:50:27;52212.91;;;-145.37;92.77
13486;BME280;6815;59.336;17.998;2023-07-31T06:52:53;52192.97;;;-145.37;92.22
13486;BME280;6815;59.336;17.998;2023-07-31T06:55:20;52196.94;;;-145.37;92.39
13486;BME280;6815;59.336;17.998;2023-07-31T06:57:46;52264.81;;;-145.37;91.80
13486;BME280;6815;59.336;17.998;2023-07-31T07:00:12;52210.91;;;-145.37;91.90
13486;BME280;6815;59.336;17.998;2023-07-31T07:02:38;52216.91;;;-145.37;90.81
13486;BME280;6815;59.336;17.998;2023-07-31T07:05:04;52190.97;;;-145.37;90.13
13486;BME280;6815;59.336;17.998;2023-07-31T07:07:29;52202.94;;;-145.37;89.23
13486;BME280;6815;59.336;17.998;2023-07-31T07:09:54;52312.72;;;-145.37;89.70
13486;BME280;6815;59.336;17.998;2023-07-31T07:12:20;52220.91;;;-145.37;89.60
13486;BME280;6815;59.336;17.998;2023-07-31T07:14:45;52208.94;;;-145.37;89.70
13486;BME280;6815;59.336;17.998;2023-07-31T07:17:13;52208.94;;;-145.37;89.90
13486;BME280;6815;59.336;17.998;2023-07-31T07:19:40;52220.91;;;-145.37;89.58
13486;BME280;6815;59.336;17.998;2023-07-31T07:22:06;52210.91;;;-145.37;89.09
13486;BME280;6815;59.336;17.998;2023-07-31T07:24:31;52244.84;;;-145.37;89.71
13486;BME280;6815;59.336;17.998;2023-07-31T07:26:57;52224.91;;;-145.37;88.90
13486;BME280;6815;59.336;17.998;2023-07-31T07:29:22;52210.91;;;-145.37;90.62
13486;BME280;6815;59.336;17.998;2023-07-31T07:31:47;52240.88;;;-145.37;90.73
13486;BME280;6815;59.336;17.998;2023-07-31T07:34:13;52226.91;;;-145.37;91.09
13486;BME280;6815;59.336;17.998;2023-07-31T07:36:38;52208.94;;;-145.37;90.07
13486;BME280;6815;59.336;17.998;2023-07-31T07:39:04;52180.97;;;-145.37;90.14
13486;BME280;6815;59.336;17.998;2023-07-31T07:41:30;52280.78;;;-145.37;91.41
13486;BME280;6815;59.336;17.998;2023-07-31T07:43:55;52254.84;;;-145.37;91.84
13486;BME280;6815;59.336;17.998;2023-07-31T07:46:21;52230.88;;;-145.37;90.48
13486;BME280;6815;59.336;17.998;2023-07-31T07:48:46;52266.81;;;-145.37;89.68
13486;BME280;6815;59.336;17.998;2023-07-31T07:51:11;52230.88;;;-145.37;88.33
13486;BME280;6815;59.336;17.998;2023-07-31T07:53:37;52202.94;;;-145.37;88.89
13486;BME280;6815;59.336;17.998;2023-07-31T07:56:02;52232.88;;;-145.37;87.82
13486;BME280;6815;59.336;17.998;2023-07-31T07:58:28;52226.91;;;-145.37;87.00
13486;BME280;6815;59.336;17.998;2023-07-31T08:00:53;52266.81;;;-145.37;87.22
13486;BME280;6815;59.336;17.998;2023-07-31T08:03:19;52262.81;;;-145.37;88.02
13486;BME280;6815;59.336;17.998;2023-07-31T08:05:44;52226.91;;;-145.37;88.25
13486;BME280;6815;59.336;17.998;2023-07-31T08:08:17;52228.88;;;-145.37;88.38
13486;BME280;6815;59.336;17.998;2023-07-31T08:10:43;52212.91;;;-145.37;88.13
13486;BME280;6815;59.336;17.998;2023-07-31T08:13:11;52244.84;;;-145.37;88.18
13486;BME280;6815;59.336;17.998;2023-07-31T08:15:37;52248.84;;;-145.37;88.15
13486;BME280;6815;59.336;17.998;2023-07-31T08:18:02;52244.84;;;-145.37;88.38
13486;BME280;6815;59.336;17.998;2023-07-31T08:20:28;52216.91;;;-145.37;88.75
13486;BME280;6815;59.336;17.998;2023-07-31T08:22:53;52238.88;;;-145.37;89.74
13486;BME280;6815;59.336;17.998;2023-07-31T08:25:19;52284.78;;;-145.37;89.09
13486;BME280;6815;59.336;17.998;2023-07-31T08:27:44;52204.94;;;-145.37;89.68
13486;BME280;6815;59.336;17.998;2023-07-31T08:30:11;52212.91;;;-145.37;89.25
13486;BME280;6815;59.336;17.998;2023-07-31T08:32:37;52169.00;;;-145.37;90.30
13486;BME280;6815;59.336;17.998;2023-07-31T08:35:02;52220.91;;;-145.37;90.12
13486;BME280;6815;59.336;17.998;2023-07-31T08:37:28;52250.84;;;-145.37;91.27
13486;BME280;6815;59.336;17.998;2023-07-31T08:39:53;52218.91;;;-145.37;92.08
13486;BME280;6815;59.336;17.998;2023-07-31T08:42:20;52206.94;;;-145.37;91.03
13486;BME280;6815;59.336;17.998;2023-07-31T08:44:46;52234.88;;;-145.37;90.37
13486;BME280;6815;59.336;17.998;2023-07-31T08:47:12;52202.94;;;-145.37;89.79
13486;BME280;6815;59.336;17.998;2023-07-31T08:49:38;52216.91;;;-145.37;90.79
13486;BME280;6815;59.336;17.998;2023-07-31T08:52:06;52202.94;;;-145.37;90.11
13486;BME280;6815;59.336;17.998;2023-07-31T08:54:31;52163.00;;;-145.37;90.24
13486;BME280;6815;59.336;17.998;2023-07-31T08:56:58;52212.91;;;-145.37;90.88
13486;BME280;6815;59.336;17.998;2023-07-31T08:59:26;52222.91;;;-145.37;90.96
13486;BME280;6815;59.336;17.998;2023-07-31T09:01:55;52220.91;;;-145.37;91.06
13486;BME280;6815;59.336;17.998;2023-07-31T09:04:23;52222.91;;;-145.37;90.73
13486;BME280;6815;59.336;17.998;2023-07-31T09:06:49;52192.97;;;-145.37;91.89
13486;BME280;6815;59.336;17.998;2023-07-31T09:09:15;52210.91;;;-145.37;91.29
13486;BME280;6815;59.336;17.998;2023-07-31T09:11:41;52240.88;;;-145.37;91.29
13486;BME280;6815;59.336;17.998;2023-07-31T09:14:08;52258.84;;;-145.37;90.28
13486;BME280;6815;59.336;17.998;2023-07-31T09:16:34;52230.88;;;-145.37;90.56
13486;BME280;6815;59.336;17.998;2023-07-31T09:19:00;52202.94;;;-145.37;90.26
13486;BME280;6815;59.336;17.998;2023-07-31T09:21:27;52246.84;;;-145.37;90.89
13486;BME280;6815;59.336;17.998;2023-07-31T09:23:54;52274.81;;;-145.37;90.43
13486;BME280;6815;59.336;17.998;2023-07-31T09:26:33;52200.94;;;-145.37;89.69
13486;BME280;6815;59.336;17.998;2023-07-31T09:29:00;52208.94;;;-145.37;88.62
13486;BME280;6815;59.336;17.998;2023-07-31T09:31:42;52202.94;;;-145.37;88.61
13486;BME280;6815;59.336;17.998;2023-07-31T09:34:08;52226.91;;;-145.37;88.21
13486;BME280;6815;59.336;17.998;2023-07-31T09:37:01;52254.84;;;-145.37;89.19
13486;BME280;6815;59.336;17.998;2023-07-31T09:39:27;52216.91;;;-145.37;89.07
13486;BME280;6815;59.336;17.998;2023-07-31T09:41:56;52262.81;;;-145.37;88.12
13486;BME280;6815;59.336;17.998;2023-07-31T09:44:37;52232.88;;;-145.37;87.36
13486;BME280;6815;59.336;17.998;2023-07-31T09:47:03;52224.91;;;-145.37;87.18
13486;BME280;6815;59.336;17.998;2023-07-31T09:49:28;52242.88;;;-145.37;86.30
13486;BME280;6815;59.336;17.998;2023-07-31T09:51:54;52250.84;;;-145.37;86.83
13486;BME280;6815;59.336;17.998;2023-07-31T09:54:19;52214.91;;;-145.37;85.91
13486;BME280;6815;59.336;17.998;2023-07-31T09:56:47;52262.81;;;-145.37;86.59
13486;BME280;6815;59.336;17.998;2023-07-31T09:59:20;52202.94;;;-145.37;86.98
13486;BME280;6815;59.336;17.998;2023-07-31T10:01:46;52216.91;;;-145.37;86.67
13486;BME280;6815;59.336;17.998;2023-07-31T10:04:13;52220.91;;;-145.37;87.11
13486;BME280;6815;59.336;17.998;2023-07-31T10:06:40;52212.91;;;-145.37;86.58
13486;BME280;6815;59.336;17.998;2023-07-31T10:09:09;52240.88;;;-145.37;85.83
13486;BME280;6815;59.336;17.998;2023-07-31T10:11:51;52224.91;;;-145.37;85.97
13486;BME280;6815;59.336;17.998;2023-07-31T10:14:21;52226.91;;;-145.37;85.45
13486;BME280;6815;59.336;17.998;2023-07-31T10:16:49;52228.88;;;-145.37;86.72
13486;BME280;6815;59.336;17.998;2023-07-31T10:19:14;52204.94;;;-145.37;87.23
13486;BME280;6815;59.336;17.998;2023-07-31T10:21:42;52252.84;;;-145.37;86.66
13486;BME280;6815;59.336;17.998;2023-07-31T10:24:08;52268.81;;;-145.37;86.40
13486;BME280;6815;59.336;17.998;2023-07-31T10:26:35;52208.94;;;-145.37;86.22
13486;BME280;6815;59.336;17.998;2023-07-31T10:29:03;52202.94;;;-145.37;86.30
13486;BME280;6815;59.336;17.998;2023-07-31T10:31:30;52210.91;;;-145.37;85.59
13486;BME280;6815;59.336;17.998;2023-07-31T10:33:57;52202.94;;;-145.37;85.10
13486;BME280;6815;59.336;17.998;2023-07-31T10:36:24;52256.84;;;-145.37;84.81
13486;BME280;6815;59.336;17.998;2023-07-31T10:38:49;52220.91;;;-145.37;83.89
13486;BME280;6815;59.336;17.998;2023-07-31T10:41:16;52228.88;;;-145.37;82.84
13486;BME280;6815;59.336;17.998;2023-07-31T10:43:41;52216.91;;;-145.37;82.09
13486;BME280;6815;59.336;17.998;2023-07-31T10:46:08;52238.88;;;-145.37;81.94
13486;BME280;6815;59.336;17.998;2023-07-31T10:48:35;52230.88;;;-145.37;82.37
13486;BME280;6815;59.336;17.998;2023-07-31T10:51:10;52232.88;;;-145.37;82.35
13486;BME280;6815;59.336;17.998;2023-07-31T10:53:36;52288.78;;;-145.37;81.71
13486;BME280;6815;59.336;17.998;2023-07-31T10:56:07;52258.84;;;-145.37;81.60
13486;BME280;6815;59.336;17.998;2023-07-31T10:58:33;52248.84;;;-145.37;81.44
13486;BME280;6815;59.336;17.998;2023-07-31T11:01:02;52206.94;;;-145.37;81.86
13486;BME280;6815;59.336;17.998;2023-07-31T11:03:45;52190.97;;;-145.37;81.89
13486;BME280;6815;59.336;17.998;2023-07-31T11:06:12;52246.84;;;-145.37;82.83
13486;BME280;6815;59.336;17.998;2023-07-31T11:08:45;52184.97;;;-145.37;82.32
13486;BME280;6815;59.336;17.998;2023-07-31T11:11:12;52242.88;;;-145.37;82.09
13486;BME280;6815;59.336;17.998;2023-07-31T11:13:44;52238.88;;;-145.37;80.89
13486;BME280;6815;59.336;17.998;2023-07-31T11:16:11;52196.94;;;-145.37;80.79
13486;BME280;6815;59.336;17.998;2023-07-31T11:18:41;52320.72;;;-145.37;80.82
13486;BME280;6815;59.336;17.998;2023-07-31T11:21:09;52228.88;;;-145.37;79.98
13486;BME280;6815;59.336;17.998;2023-07-31T11:23:37;52230.88;;;-145.37;77.81
13486;BME280;6815;59.336;17.998;2023-07-31T11:26:05;52222.91;;;-145.37;77.98
13486;BME280;6815;59.336;17.998;2023-07-31T11:28:32;52206.94;;;-145.37;77.24
13486;BME280;6815;59.336;17.998;2023-07-31T11:30:58;52202.94;;;-145.37;76.12
13486;BME280;6815;59.336;17.998;2023-07-31T11:33:25;52220.91;;;-145.37;76.38
13486;BME280;6815;59.336;17.998;2023-07-31T11:35:51;52250.84;;;-145.37;75.88
13486;BME280;6815;59.336;17.998;2023-07-31T11:38:30;52212.91;;;-145.37;75.68
13486;BME280;6815;59.336;17.998;2023-07-31T11:41:00;52288.78;;;-145.37;75.93
13486;BME280;6815;59.336;17.998;2023-07-31T11:43:28;52214.91;;;-145.37;76.54
13486;BME280;6815;59.336;17.998;2023-07-31T11:45:58;52244.84;;;-145.37;76.13
13486;BME280;6815;59.336;17.998;2023-07-31T11:48:24;52230.88;;;-145.37;76.81
13486;BME280;6815;59.336;17.998;2023-07-31T11:50:52;52248.84;;;-145.37;77.76
13486;BME280;6815;59.336;17.998;2023-07-31T11:53:26;52242.88;;;-145.37;78.74
13486;BME280;6815;59.336;17.998;2023-07-31T11:55:54;52242.88;;;-145.37;79.59
13486;BME280;6815;59.336;17.998;2023-07-31T11:58:20;52254.84;;;-145.37;77.44
13486;BME280;6815;59.336;17.998;2023-07-31T12:00:47;52192.97;;;-145.37;76.78
13486;BME280;6815;59.336;17.998;2023-07-31T12:03:13;52228.88;;;-145.37;76.60
13486;BME280;6815;59.336;17.998;2023-07-31T12:05:38;52210.91;;;-145.37;76.74
13486;BME280;6815;59.336;17.998;2023-07-31T12:08:09;52182.97;;;-145.37;76.85
13486;BME280;6815;59.336;17.998;2023-07-31T12:10:36;52230.88;;;-145.37;77.07
13486;BME280;6815;59.336;17.998;2023-07-31T12:13:19;52250.84;;;-145.37;79.07
13486;BME280;6815;59.336;17.998;2023-07-31T12:15:45;52230.88;;;-145.37;78.97
13486;BME280;6815;59.336;17.998;2023-07-31T12:18:24;52248.84;;;-145.37;80.09
13486;BME280;6815;59.336;17.998;2023-07-31T12:21:01;52177.00;;;-145.37;81.55
13486;BME280;6815;59.336;17.998;2023-07-31T12:23:29;52274.81;;;-145.37;81.74
13486;BME280;6815;59.336;17.998;2023-07-31T12:26:15;52232.88;;;-145.37;82.84
13486;BME280;6815;59.336;17.998;2023-07-31T12:28:45;52216.91;;;-145.37;82.02
13486;BME280;6815;59.336;17.998;2023-07-31T12:31:13;52204.94;;;-145.37;82.14
13486;BME280;6815;59.336;17.998;2023-07-31T12:33:40;52216.91;;;-145.37;82.55
13486;BME280;6815;59.336;17.998;2023-07-31T12:36:17;52212.91;;;-145.37;84.36
13486;BME280;6815;59.336;17.998;2023-07-31T12:38:43;52210.91;;;-145.37;83.45
13486;BME280;6815;59.336;17.998;2023-07-31T12:41:09;52250.84;;;-145.37;82.03
13486;BME280;6815;59.336;17.998;2023-07-31T12:43:35;52276.81;;;-145.37;82.49